Time,TemperatureF,DewpointF,PressureIn,WindDirection,WindDirectionDegrees,WindSpeedMPH,WindSpeedGustMPH,Humidity,HourlyPrecipIn,Conditions,Clouds,dailyrainin,SoftwareType,DateUTC
2013-08-26 00:14:00,75.0,74.0,30.13,ENE,62,2.0,6.0,96,-99.99,,,-99.99,,2013-08-26 04:14:00,
2013-08-26 00:24:00,76.0,75.0,30.13,NE,42,3.0,6.0,97,-99.99,,,-99.99,,2013-08-26 04:24:00,
2013-08-26 00:34:00,76.0,75.0,30.13,NE,42,3.0,6.0,97,-99.99,,,-99.99,,2013-08-26 04:34:00,
2013-08-26 00:53:00,76.0,75.0,30.12,East,86,2.0,5.0,97,-99.99,,,-99.99,,2013-08-26 04:53:00,
2013-08-26 01:13:00,76.0,75.0,30.12,NE,50,2.0,3.0,97,-99.99,,,-99.99,,2013-08-26 05:13:00,
2013-08-26 01:52:00,75.0,74.0,30.12,NE,40,3.0,8.0,96,-99.99,,,-99.99,,2013-08-26 05:52:00,
2013-08-26 02:12:00,75.0,74.0,30.11,NE,51,2.0,5.0,95,-99.99,,,-99.99,,2013-08-26 06:12:00,
2013-08-26 02:22:00,75.0,73.0,30.11,ENE,71,2.0,5.0,96,-99.99,,,-99.99,,2013-08-26 06:22:00,
2013-08-26 02:32:00,75.0,73.0,30.11,ENE,71,2.0,5.0,96,-99.99,,,-99.99,,2013-08-26 06:32:00,
2013-08-26 03:12:00,74.0,73.0,30.10,NE,53,2.0,4.0,95,-99.99,,,-99.99,,2013-08-26 07:12:00,
2013-08-26 03:22:00,74.0,73.0,30.09,NE,55,2.0,3.0,95,-99.99,,,-99.99,,2013-08-26 07:22:00,
2013-08-26 03:32:00,74.0,73.0,30.09,NE,55,2.0,3.0,95,-99.99,,,-99.99,,2013-08-26 07:32:00,
2013-08-26 03:52:00,74.0,73.0,30.08,NE,44,2.0,3.0,96,-99.99,,,-99.99,,2013-08-26 07:52:00,
2013-08-26 04:12:00,74.0,73.0,30.08,NE,36,2.0,4.0,96,-99.99,,,-99.99,,2013-08-26 08:12:00,
2013-08-26 04:22:00,73.0,73.0,30.06,NE,47,2.0,4.0,96,-99.99,,,-99.99,,2013-08-26 08:22:00,
2013-08-26 04:32:00,73.0,73.0,30.06,NE,47,2.0,4.0,96,-99.99,,,-99.99,,2013-08-26 08:32:00,
2013-08-26 04:52:00,74.0,73.0,30.06,NE,45,2.0,5.0,97,-99.99,,,-99.99,,2013-08-26 08:52:00,
2013-08-26 05:11:00,74.0,73.0,30.06,NE,52,2.0,3.0,97,-99.99,,,-99.99,,2013-08-26 09:11:00,
2013-08-26 05:22:00,74.0,73.0,30.08,NE,34,2.0,4.0,97,-99.99,,,-99.99,,2013-08-26 09:22:00,
2013-08-26 05:33:00,74.0,73.0,30.08,NE,34,2.0,4.0,97,-99.99,,,-99.99,,2013-08-26 09:33:00,
2013-08-26 05:54:00,74.0,73.0,30.08,ENE,72,3.0,5.0,97,-99.99,,,-99.99,,2013-08-26 09:54:00,
2013-08-26 06:13:00,74.0,73.0,30.07,East,88,3.0,5.0,97,-99.99,,,-99.99,,2013-08-26 10:13:00,
2013-08-26 06:23:00,73.0,73.0,30.07,SE,143,2.0,5.0,97,-99.99,,,-99.99,,2013-08-26 10:23:00,
2013-08-26 06:32:00,73.0,73.0,30.07,SE,143,2.0,5.0,97,-99.99,,,-99.99,,2013-08-26 10:32:00,
2013-08-26 06:52:00,74.0,73.0,30.08,East,93,3.0,6.0,98,-99.99,,,-99.99,,2013-08-26 10:52:00,
2013-08-26 07:12:00,74.0,73.0,30.07,East,84,3.0,5.0,98,-99.99,,,-99.99,,2013-08-26 11:12:00,
2013-08-26 07:22:00,74.0,73.0,30.09,ENE,60,3.0,5.0,98,-99.99,,,-99.99,,2013-08-26 11:22:00,
2013-08-26 07:33:00,74.0,73.0,30.09,ENE,60,3.0,5.0,98,-99.99,,,-99.99,,2013-08-26 11:33:00,
2013-08-26 07:52:00,74.0,73.0,30.09,East,83,2.0,5.0,98,-99.99,,,-99.99,,2013-08-26 11:52:00,
2013-08-26 08:12:00,74.0,74.0,30.09,NE,53,3.0,7.0,98,-99.99,,,-99.99,,2013-08-26 12:12:00,
2013-08-26 08:22:00,75.0,74.0,30.10,NE,46,2.0,5.0,98,-99.99,,,-99.99,,2013-08-26 12:22:00,
2013-08-26 08:32:00,75.0,74.0,30.10,NE,46,2.0,5.0,98,-99.99,,,-99.99,,2013-08-26 12:32:00,
2013-08-26 08:52:00,76.0,75.0,30.10,NE,50,2.0,5.0,98,-99.99,,,-99.99,,2013-08-26 12:52:00,
2013-08-26 09:12:00,76.0,75.0,30.10,NE,51,3.0,5.0,97,-99.99,,,-99.99,,2013-08-26 13:12:00,
2013-08-26 09:22:00,77.0,76.0,30.10,NE,47,4.0,8.0,95,-99.99,,,-99.99,,2013-08-26 13:22:00,
2013-08-26 09:32:00,77.0,76.0,30.10,NE,47,4.0,8.0,95,-99.99,,,-99.99,,2013-08-26 13:32:00,
2013-08-26 09:52:00,78.0,76.0,30.11,NE,51,5.0,8.0,94,-99.99,,,-99.99,,2013-08-26 13:52:00,
2013-08-26 10:11:00,79.0,76.0,30.11,NE,52,5.0,11.0,92,-99.99,,,-99.99,,2013-08-26 14:11:00,
2013-08-26 10:22:00,80.0,76.0,30.11,East,79,4.0,8.0,87,-99.99,,,-99.99,,2013-08-26 14:22:00,
2013-08-26 10:32:00,80.0,76.0,30.11,East,79,4.0,8.0,87,-99.99,,,-99.99,,2013-08-26 14:32:00,
2013-08-26 10:52:00,81.0,76.0,30.11,NE,50,4.0,8.0,86,-99.99,,,-99.99,,2013-08-26 14:52:00,
2013-08-26 11:12:00,81.0,76.0,30.11,ENE,62,5.0,10.0,84,-99.99,,,-99.99,,2013-08-26 15:12:00,
2013-08-26 11:22:00,83.0,76.0,30.12,ENE,77,5.0,10.0,79,-99.99,,,-99.99,,2013-08-26 15:22:00,
2013-08-26 11:35:00,83.0,76.0,30.12,ENE,77,5.0,10.0,79,-99.99,,,-99.99,,2013-08-26 15:35:00,
2013-08-26 11:59:00,83.0,76.0,30.11,East,80,4.0,8.0,78,-99.99,,,-99.99,,2013-08-26 15:59:00,
2013-08-26 12:17:00,84.0,76.0,30.11,East,90,3.0,6.0,75,-99.99,,,-99.99,,2013-08-26 16:17:00,
2013-08-26 12:29:00,86.0,75.0,30.11,ESE,117,4.0,9.0,69,-99.99,,,-99.99,,2013-08-26 16:29:00,
2013-08-26 12:37:00,86.0,75.0,30.11,ESE,117,4.0,9.0,69,-99.99,,,-99.99,,2013-08-26 16:37:00,
2013-08-26 12:59:00,86.0,75.0,30.12,East,98,4.0,7.0,69,-99.99,,,-99.99,,2013-08-26 16:59:00,
2013-08-26 13:12:00,87.0,75.0,30.11,SE,140,3.0,7.0,67,-99.99,,,-99.99,,2013-08-26 17:12:00,
2013-08-26 13:53:00,87.0,73.0,30.09,SSE,163,3.0,7.0,62,-99.99,,,-99.99,,2013-08-26 17:53:00,
2013-08-26 14:12:00,87.0,74.0,30.08,WSW,256,4.0,9.0,64,-99.99,,,-99.99,,2013-08-26 18:12:00,
2013-08-26 14:22:00,86.0,74.0,30.07,NW,320,6.0,14.0,68,-99.99,,,-99.99,,2013-08-26 18:22:00,
2013-08-26 14:32:00,86.0,74.0,30.07,NW,320,6.0,14.0,68,-99.99,,,-99.99,,2013-08-26 18:32:00,
2013-08-26 14:52:00,85.0,72.0,30.06,WNW,298,6.0,9.0,64,-99.99,,,-99.99,,2013-08-26 18:52:00,
2013-08-26 15:11:00,86.0,72.0,30.06,WSW,241,8.0,19.0,61,-99.99,,,-99.99,,2013-08-26 19:11:00,
2013-08-26 16:11:00,78.0,73.0,30.04,SW,228,7.0,13.0,84,-99.99,,,-99.99,,2013-08-26 20:11:00,
2013-08-26 16:22:00,83.0,75.0,30.03,SW,215,6.0,10.0,76,-99.99,,,-99.99,,2013-08-26 20:22:00,
2013-08-26 16:32:00,83.0,75.0,30.03,SW,215,6.0,10.0,76,-99.99,,,-99.99,,2013-08-26 20:32:00,
2013-08-26 16:52:00,84.0,74.0,30.04,SSW,199,6.0,14.0,70,-99.99,,,-99.99,,2013-08-26 20:52:00,
2013-08-26 17:12:00,84.0,72.0,30.03,SSW,210,6.0,10.0,67,-99.99,,,-99.99,,2013-08-26 21:12:00,
2013-08-26 17:22:00,82.0,72.0,30.03,West,267,3.0,5.0,72,-99.99,,,-99.99,,2013-08-26 21:22:00,
2013-08-26 17:35:00,82.0,72.0,30.03,West,267,3.0,5.0,72,-99.99,,,-99.99,,2013-08-26 21:35:00,
2013-08-26 17:55:00,81.0,73.0,30.02,NW,314,7.0,16.0,76,-99.99,,,-99.99,,2013-08-26 21:55:00,
2013-08-26 18:16:00,80.0,73.0,30.01,WNW,283,5.0,10.0,80,-99.99,,,-99.99,,2013-08-26 22:16:00,
2013-08-26 18:26:00,76.0,72.0,30.06,ENE,72,7.0,16.0,85,-99.99,,,-99.99,,2013-08-26 22:26:00,
2013-08-26 18:34:00,76.0,72.0,30.06,ENE,72,7.0,16.0,85,-99.99,,,-99.99,,2013-08-26 22:34:00,
2013-08-26 18:53:00,72.0,70.0,30.05,WSW,241,8.0,15.0,93,-99.99,,,-99.99,,2013-08-26 22:53:00,
2013-08-26 19:13:00,72.0,70.0,30.03,SSW,198,6.0,11.0,95,-99.99,,,-99.99,,2013-08-26 23:13:00,
2013-08-26 19:52:00,73.0,72.0,30.04,SSE,155,2.0,5.0,96,-99.99,,,-99.99,,2013-08-26 23:52:00,
2013-08-26 20:11:00,72.0,72.0,-100.00,SE,138,3.0,5.0,97,-99.99,,,-99.99,,2013-08-27 00:11:00,
2013-08-26 20:22:00,73.0,72.0,30.06,SE,143,4.0,8.0,97,-99.99,,,-99.99,,2013-08-27 00:22:00,
2013-08-26 20:32:00,73.0,72.0,30.06,SE,143,4.0,8.0,97,-99.99,,,-99.99,,2013-08-27 00:32:00,
2013-08-26 20:52:00,73.0,72.0,30.05,WSW,255,2.0,3.0,97,-99.99,,,-99.99,,2013-08-27 00:52:00,
2013-08-26 21:12:00,72.0,72.0,30.05,East,101,2.0,4.0,97,-99.99,,,-99.99,,2013-08-27 01:12:00,
2013-08-26 21:52:00,71.0,71.0,30.05,SSE,157,2.0,5.0,98,-99.99,,,-99.99,,2013-08-27 01:52:00,
2013-08-26 22:12:00,72.0,71.0,30.04,SSW,199,3.0,5.0,98,-99.99,,,-99.99,,2013-08-27 02:12:00,
2013-08-26 22:52:00,71.0,70.0,30.05,East,97,1.0,3.0,98,-99.99,,,-99.99,,2013-08-27 02:52:00,
2013-08-26 23:12:00,71.0,70.0,30.05,NE,47,2.0,3.0,98,-99.99,,,-99.99,,2013-08-27 03:12:00,
2013-08-26 23:58:00,71.0,70.0,30.07,South,191,2.0,4.0,98,-99.99,,,-99.99,,2013-08-27 03:58:00,